Time;durP1;ratioP1;P1;durP2;ratioP2;P2;SDS_P1;SDS_P2;PMS_P1;PMS_P2;Temp;Humidity;BMP_temperature;BMP_pressure;BME280_temperature;BME280_humidity;BME280_pressure;Samples;Min_cycle;Max_cycle;Signal;HPM_P1;HPM_P2
2021/03/19 00:00:22;;;;;;;5.25;3.27;;;4.70;99.90;;;;;;1667796;86;21307;-73
2021/03/19 00:02:53;;;;;;;5.15;3.10;;;4.70;99.90;;;;;;1667735;86;21177;-74
2021/03/19 00:05:24;;;;;;;5.05;2.90;;;4.80;99.90;;;;;;1667861;86;21178;-74
2021/03/19 00:07:55;;;;;;;5.70;3.30;;;4.90;99.20;;;;;;1668006;86;21524;-75
2021/03/19 00:10:31;;;;;;;5.50;2.80;;;4.90;99.00;;;;;;1667987;86;21149;-74
2021/03/19 00:13:08;;;;;;;4.35;2.83;;;4.80;99.90;;;;;;1667969;86;21282;-75
2021/03/19 00:15:38;;;;;;;5.45;3.02;;;4.80;99.90;;;;;;1668169;86;21153;-75
2021/03/19 00:18:08;;;;;;;5.15;2.80;;;4.80;99.40;;;;;;1668105;86;21174;-75
2021/03/19 00:20:40;;;;;;;5.83;3.45;;;4.70;99.40;;;;;;1667938;86;21310;-73
2021/03/19 00:23:10;;;;;;;5.35;3.25;;;4.60;99.90;;;;;;1667739;85;21642;-74
2021/03/19 00:25:39;;;;;;;4.75;2.75;;;4.50;99.90;;;;;;1667823;86;21169;-74
2021/03/19 00:28:13;;;;;;;5.78;3.05;;;4.60;99.90;;;;;;1668209;86;21188;-74
2021/03/19 00:30:38;;;;;;;5.15;2.87;;;4.60;99.90;;;;;;1667803;86;21164;-74
2021/03/19 00:33:06;;;;;;;4.47;2.60;;;4.60;99.90;;;;;;1667664;86;21307;-76
2021/03/19 00:35:34;;;;;;;4.65;2.95;;;4.70;99.90;;;;;;1667927;86;21197;-72
2021/03/19 00:38:03;;;;;;;5.03;3.05;;;4.60;99.90;;;;;;1667904;86;21338;-73
2021/03/19 00:40:31;;;;;;;5.85;3.50;;;4.60;99.90;;;;;;1667888;86;21319;-73
2021/03/19 00:43:00;;;;;;;4.08;2.67;;;4.60;99.90;;;;;;1668185;86;21180;-73
2021/03/19 00:45:28;;;;;;;5.58;3.17;;;4.50;99.90;;;;;;1667997;86;21626;-74
2021/03/19 00:47:55;;;;;;;4.22;2.55;;;4.50;99.90;;;;;;1668179;86;21620;-71
2021/03/19 00:50:34;;;;;;;3.85;2.33;;;4.60;99.90;;;;;;1668105;86;21180;-71
2021/03/19 00:53:04;;;;;;;4.92;2.40;;;4.70;99.90;;;;;;1666578;85;21632;-71
2021/03/19 00:55:33;;;;;;;5.25;2.80;;;4.80;99.50;;;;;;1665939;86;21165;-72
2021/03/19 00:58:01;;;;;;;4.67;2.80;;;4.80;98.70;;;;;;1665690;86;21197;-73
2021/03/19 01:00:33;;;;;;;4.40;2.85;;;4.90;99.10;;;;;;1665748;86;21149;-72
2021/03/19 01:03:03;;;;;;;5.25;3.08;;;5.00;99.00;;;;;;1665847;86;21181;-72
2021/03/19 01:05:35;;;;;;;4.90;2.83;;;5.20;98.60;;;;;;1665742;86;21184;-73
2021/03/19 01:08:05;;;;;;;5.45;3.30;;;5.30;97.00;;;;;;1665765;86;21161;-73
2021/03/19 01:10:41;;;;;;;6.58;3.22;;;5.40;96.90;;;;;;1665895;86;21611;-73
2021/03/19 01:13:09;;;;;;;4.22;2.50;;;5.40;96.00;;;;;;1665769;86;21133;-73
2021/03/19 01:15:38;;;;;;;5.00;3.20;;;5.50;94.80;;;;;;1665917;86;21160;-73
2021/03/19 01:18:10;;;;;;;4.83;3.27;;;5.50;94.10;;;;;;1665700;86;21639;-73
2021/03/19 01:20:41;;;;;;;4.83;3.17;;;5.50;94.20;;;;;;1665733;86;21157;-73
2021/03/19 01:23:11;;;;;;;4.83;3.15;;;5.30;94.20;;;;;;1665933;86;21571;-73
2021/03/19 01:25:40;;;;;;;4.80;3.00;;;5.40;94.60;;;;;;1665778;86;21640;-73
2021/03/19 01:28:09;;;;;;;5.92;3.20;;;5.30;94.40;;;;;;1665822;86;21168;-73
2021/03/19 01:30:39;;;;;;;6.12;3.37;;;5.30;94.20;;;;;;1665724;86;21168;-73
2021/03/19 01:33:08;;;;;;;7.17;4.15;;;5.20;94.60;;;;;;1665738;86;21122;-73
2021/03/19 01:35:40;;;;;;;6.12;3.67;;;5.10;94.50;;;;;;1665715;86;21138;-73
2021/03/19 01:38:10;;;;;;;5.78;3.58;;;4.90;95.90;;;;;;1665925;86;21161;-74
2021/03/19 01:40:46;;;;;;;6.00;3.65;;;4.90;95.90;;;;;;1665901;86;21603;-77
2021/03/19 01:43:41;;;;;;;5.25;3.27;;;4.80;96.10;;;;;;1666288;86;21650;-77
2021/03/19 01:47:05;;;;;;;5.47;3.55;;;4.80;96.50;;;;;;1665960;86;21608;-77
2021/03/19 01:50:32;;;;;;;5.03;3.22;;;4.70;97.50;;;;;;1665710;86;21169;-77
2021/03/19 01:53:56;;;;;;;5.75;3.65;;;4.80;96.20;;;;;;1665614;84;21192;-77
2021/03/19 01:57:19;;;;;;;5.62;3.55;;;4.80;95.40;;;;;;1665649;86;21177;-76
2021/03/19 02:00:44;;;;;;;6.70;3.67;;;4.70;96.80;;;;;;1665755;86;21145;-74
2021/03/19 02:04:08;;;;;;;5.85;3.58;;;4.60;96.50;;;;;;1665721;86;21172;-74
2021/03/19 02:07:32;;;;;;;5.60;3.15;;;4.70;96.20;;;;;;1665690;86;21146;-72
2021/03/19 02:10:56;;;;;;;5.58;3.30;;;4.70;94.90;;;;;;1665709;86;21193;-72
2021/03/19 02:14:20;;;;;;;6.45;3.50;;;4.70;96.00;;;;;;1665853;86;21190;-70
2021/03/19 02:17:44;;;;;;;5.60;3.37;;;4.60;96.30;;;;;;1665685;86;21169;-71
2021/03/19 02:21:08;;;;;;;5.60;3.27;;;4.60;96.90;;;;;;1665850;86;21177;-72
2021/03/19 02:24:32;;;;;;;5.83;3.35;;;4.70;95.60;;;;;;1665851;86;21598;-73
2021/03/19 02:27:56;;;;;;;5.30;3.25;;;4.80;94.40;;;;;;1665676;86;21146;-74
2021/03/19 02:31:15;;;;;;;5.97;3.55;;;4.90;93.80;;;;;;1665667;86;21193;-72
2021/03/19 02:34:00;;;;;;;5.75;3.47;;;4.90;94.00;;;;;;1664994;86;21234;-72
2021/03/19 02:36:29;;;;;;;6.92;3.67;;;4.90;93.70;;;;;;1665931;86;21176;-74
2021/03/19 02:38:57;;;;;;;5.55;3.55;;;4.90;94.70;;;;;;1665850;86;21176;-73
2021/03/19 02:41:25;;;;;;;5.80;3.70;;;4.80;94.20;;;;;;1665673;86;21167;-74
2021/03/19 02:43:54;;;;;;;5.65;3.77;;;4.90;94.00;;;;;;1665759;86;21585;-73
2021/03/19 02:46:22;;;;;;;7.10;4.12;;;4.80;95.30;;;;;;1665921;86;21173;-73
2021/03/19 02:48:50;;;;;;;6.60;4.00;;;4.80;94.10;;;;;;1665688;86;21229;-73
2021/03/19 02:51:18;;;;;;;5.50;3.67;;;4.80;94.80;;;;;;1665751;86;21150;-74
2021/03/19 02:53:46;;;;;;;5.90;3.58;;;4.90;93.70;;;;;;1665604;84;21165;-73
2021/03/19 02:56:14;;;;;;;5.87;3.75;;;4.90;94.50;;;;;;1665594;86;21204;-71
2021/03/19 02:58:42;;;;;;;5.70;3.65;;;4.80;93.90;;;;;;1665765;86;21173;-73
2021/03/19 03:01:09;;;;;;;4.83;3.08;;;4.80;93.20;;;;;;1665639;86;21163;-72
2021/03/19 03:03:38;;;;;;;5.22;2.85;;;4.80;93.30;;;;;;1665839;86;21193;-72
2021/03/19 03:06:07;;;;;;;4.95;2.80;;;4.70;92.40;;;;;;1665655;86;21182;-72
2021/03/19 03:08:34;;;;;;;4.42;2.62;;;4.70;93.00;;;;;;1665844;86;21185;-72
2021/03/19 03:11:03;;;;;;;5.60;3.15;;;4.70;93.00;;;;;;1665823;86;21181;-73
2021/03/19 03:13:31;;;;;;;6.08;2.90;;;4.70;92.80;;;;;;1665671;86;21177;-73
2021/03/19 03:16:13;;;;;;;4.45;2.70;;;4.80;93.00;;;;;;1665743;86;21616;-73
2021/03/19 03:18:41;;;;;;;4.40;2.47;;;4.90;92.90;;;;;;1698062;84;21180;-73
2021/03/19 03:21:09;;;;;;;4.40;2.62;;;5.00;92.20;;;;;;1698022;84;21183;-73
2021/03/19 03:23:37;;;;;;;4.62;2.62;;;5.00;91.70;;;;;;1657458;86;21180;-73
2021/03/19 03:26:04;;;;;;;5.42;2.87;;;5.00;91.80;;;;;;1657486;86;21607;-73
2021/03/19 03:28:32;;;;;;;4.80;2.85;;;5.00;92.00;;;;;;1657665;86;21367;-72
2021/03/19 03:31:01;;;;;;;4.80;3.10;;;5.00;91.80;;;;;;1657508;86;21154;-73
2021/03/19 03:33:29;;;;;;;4.95;3.08;;;5.00;91.50;;;;;;1657677;86;21338;-73
2021/03/19 03:35:56;;;;;;;6.15;3.25;;;4.90;91.80;;;;;;1657685;86;21327;-73
2021/03/19 03:38:28;;;;;;;4.92;3.22;;;4.90;91.80;;;;;;1657550;86;21629;-73
2021/03/19 03:41:04;;;;;;;5.45;3.47;;;4.90;92.80;;;;;;1657664;86;21288;-73
2021/03/19 03:43:34;;;;;;;6.12;3.33;;;4.80;94.00;;;;;;1657803;86;21324;-74
2021/03/19 03:46:07;;;;;;;5.55;3.20;;;4.80;93.70;;;;;;1657697;86;21184;-74
2021/03/19 03:48:36;;;;;;;5.65;3.30;;;4.80;92.60;;;;;;1657457;86;21174;-74
2021/03/19 03:51:08;;;;;;;6.78;3.55;;;4.80;93.00;;;;;;1657732;86;21344;-74
2021/03/19 03:53:38;;;;;;;6.75;3.47;;;4.70;92.60;;;;;;1657672;86;21327;-74
2021/03/19 03:56:10;;;;;;;5.90;3.45;;;4.70;93.20;;;;;;1657446;86;21189;-74
2021/03/19 03:58:41;;;;;;;5.55;3.50;;;4.80;93.00;;;;;;1657510;86;21143;-75
2021/03/19 04:01:10;;;;;;;7.08;3.95;;;4.70;93.50;;;;;;1657599;86;21169;-75
2021/03/19 04:03:38;;;;;;;6.40;3.62;;;4.70;92.90;;;;;;1657495;86;21189;-75
2021/03/19 04:06:07;;;;;;;5.85;3.10;;;4.50;93.20;;;;;;1657821;86;21178;-74
2021/03/19 04:08:35;;;;;;;6.80;3.50;;;4.50;93.90;;;;;;1657476;86;21190;-74
2021/03/19 04:11:08;;;;;;;8.13;3.47;;;4.50;93.80;;;;;;1657539;86;21746;-74
2021/03/19 04:13:37;;;;;;;5.10;3.02;;;4.50;93.50;;;;;;1657651;86;21166;-74
2021/03/19 04:16:07;;;;;;;6.22;3.50;;;4.60;93.30;;;;;;1657755;86;21573;-74
2021/03/19 04:18:35;;;;;;;4.72;3.02;;;4.60;93.20;;;;;;1649574;85;21234;-75
2021/03/19 04:21:08;;;;;;;5.50;3.37;;;4.60;93.00;;;;;;1690960;85;21169;-74
2021/03/19 04:23:44;;;;;;;4.97;3.25;;;4.60;92.90;;;;;;1647978;87;21189;-75
2021/03/19 04:26:32;;;;;;;4.75;2.83;;;4.50;92.80;;;;;;1690836;85;21674;-75
2021/03/19 04:29:01;;;;;;;6.25;3.40;;;4.40;93.50;;;;;;1648500;86;21168;-76
2021/03/19 04:31:30;;;;;;;5.37;3.20;;;4.40;94.20;;;;;;1690945;85;21310;-76
2021/03/19 04:33:59;;;;;;;6.33;3.55;;;4.40;94.70;;;;;;1690773;85;21166;-75
2021/03/19 04:36:49;;;;;;;5.85;3.00;;;4.40;96.20;;;;;;1690917;85;21165;-75
2021/03/19 04:39:22;;;;;;;5.78;3.50;;;4.40;97.00;;;;;;1648204;87;21593;-75
2021/03/19 04:41:54;;;;;;;6.60;3.75;;;4.50;95.30;;;;;;1690586;85;21299;-76
2021/03/19 04:44:26;;;;;;;8.03;4.30;;;4.60;94.80;;;;;;1690880;85;21177;-76
2021/03/19 04:46:55;;;;;;;5.87;3.67;;;4.60;95.00;;;;;;1648052;86;21591;-75
2021/03/19 04:49:23;;;;;;;6.58;3.42;;;4.50;94.40;;;;;;1690832;85;21580;-76
2021/03/19 04:51:51;;;;;;;5.72;3.30;;;4.50;95.00;;;;;;1648047;87;21592;-74
2021/03/19 04:54:19;;;;;;;4.95;2.90;;;4.30;95.10;;;;;;1690910;85;21343;-74
2021/03/19 04:56:46;;;;;;;5.33;2.85;;;4.40;94.80;;;;;;1691193;85;21145;-73
2021/03/19 04:59:14;;;;;;;3.92;2.42;;;4.40;94.80;;;;;;1647957;87;21201;-74
2021/03/19 05:01:53;;;;;;;4.65;2.83;;;4.40;93.90;;;;;;1690874;85;21326;-74
2021/03/19 05:04:22;;;;;;;4.67;2.65;;;4.50;94.50;;;;;;1687879;85;21315;-74
2021/03/19 05:06:54;;;;;;;4.55;2.55;;;4.40;93.70;;;;;;1690941;85;21750;-74
2021/03/19 05:09:22;;;;;;;5.37;3.15;;;4.40;94.10;;;;;;1648316;86;21185;-74
2021/03/19 05:11:49;;;;;;;4.90;3.17;;;4.50;94.00;;;;;;1690864;85;21310;-75
2021/03/19 05:14:19;;;;;;;4.78;3.15;;;4.50;94.20;;;;;;1690882;85;21722;-74
2021/03/19 05:16:48;;;;;;;5.75;3.08;;;4.30;95.20;;;;;;1648270;87;21592;-75
2021/03/19 05:19:16;;;;;;;5.40;3.02;;;4.40;95.90;;;;;;1690842;85;21596;-75
2021/03/19 05:21:44;;;;;;;5.28;3.02;;;4.40;96.00;;;;;;1690935;85;21152;-75
2021/03/19 05:24:13;;;;;;;5.87;3.52;;;4.50;94.70;;;;;;1690866;85;21643;-75
2021/03/19 05:26:41;;;;;;;5.30;3.15;;;4.50;94.80;;;;;;1691034;85;21173;-76
2021/03/19 05:29:12;;;;;;;5.03;2.80;;;4.60;94.00;;;;;;1648095;87;21192;-76
2021/03/19 05:31:41;;;;;;;4.72;2.58;;;4.60;94.00;;;;;;1691027;85;21315;-75
2021/03/19 05:34:13;;;;;;;4.87;3.50;;;4.60;93.60;;;;;;1690863;85;21172;-74
2021/03/19 05:36:40;;;;;;;5.55;3.30;;;4.50;94.30;;;;;;1648287;87;21185;-74
2021/03/19 05:39:10;;;;;;;5.20;3.20;;;4.50;94.60;;;;;;1690882;85;21218;-76
2021/03/19 05:41:42;;;;;;;4.70;2.90;;;4.50;95.00;;;;;;1690875;85;21318;-75
2021/03/19 05:44:21;;;;;;;5.20;3.10;;;4.50;95.20;;;;;;1648270;87;21177;-74
2021/03/19 05:47:03;;;;;;;5.22;3.22;;;4.40;95.10;;;;;;1680951;84;21156;-77
2021/03/19 05:49:36;;;;;;;5.40;3.52;;;4.40;96.20;;;;;;1705807;84;21153;-78
2021/03/19 05:52:21;;;;;;;6.87;3.77;;;4.50;98.80;;;;;;1712455;84;21184;-78
2021/03/19 05:54:52;;;;;;;8.55;3.17;;;4.60;95.80;;;;;;1699228;84;21184;-74
2021/03/19 05:57:32;;;;;;;5.70;3.40;;;4.60;94.00;;;;;;1686375;84;21147;-76
2021/03/19 06:00:03;;;;;;;7.22;3.47;;;4.60;93.90;;;;;;1695593;84;21173;-77
2021/03/19 06:02:38;;;;;;;6.22;3.30;;;4.30;94.00;;;;;;1686798;84;21170;-76
2021/03/19 06:05:19;;;;;;;4.97;2.98;;;4.30;95.70;;;;;;1677334;85;21156;-77
2021/03/19 06:08:01;;;;;;;7.55;3.65;;;4.30;94.10;;;;;;1678140;85;21125;-78
2021/03/19 06:10:36;;;;;;;6.17;3.52;;;4.20;95.50;;;;;;1677927;85;21244;-78
2021/03/19 06:13:24;;;;;;;7.20;3.75;;;4.30;95.50;;;;;;1686155;84;21168;-77
2021/03/19 06:16:20;;;;;;;5.92;3.52;;;4.20;96.70;;;;;;1685850;84;21178;-73
2021/03/19 06:19:01;;;;;;;7.30;3.47;;;4.20;97.60;;;;;;1796769;79;23007;-76
2021/03/19 06:21:36;;;;;;;6.05;3.08;;;4.10;96.40;;;;;;1766085;80;21579;-74
2021/03/19 06:24:27;;;;;;;4.95;2.90;;;4.10;95.60;;;;;;1769340;80;21132;-74
2021/03/19 06:27:12;;;;;;;7.70;3.62;;;4.30;95.30;;;;;;1770527;80;21140;-75
2021/03/19 06:29:48;;;;;;;11.65;3.50;;;4.30;95.60;;;;;;1760289;81;21110;-83
2021/03/19 06:32:21;;;;;;;5.03;3.30;;;4.50;95.00;;;;;;1762039;81;21591;-81
2021/03/19 06:35:18;;;;;;;6.03;3.42;;;4.60;94.50;;;;;;1780430;80;21579;-80
2021/03/19 06:37:51;;;;;;;6.10;3.15;;;4.70;94.60;;;;;;1790454;80;21153;-82
2021/03/19 06:40:40;;;;;;;5.37;3.20;;;4.80;93.60;;;;;;1761878;81;21573;-86
2021/03/19 06:43:28;;;;;;;5.60;3.75;;;4.70;93.30;;;;;;1766226;80;21145;-82
2021/03/19 06:46:28;;;;;;;6.72;2.87;;;4.70;94.70;;;;;;1766376;80;21117;-79
2021/03/19 06:49:03;;;;;;;4.85;2.85;;;4.70;93.10;;;;;;1767382;80;21156;-77
2021/03/19 06:51:35;;;;;;;5.80;3.10;;;4.50;93.20;;;;;;1762047;81;21161;-79
2021/03/19 06:54:25;;;;;;;7.62;3.27;;;4.50;94.80;;;;;;1762139;81;21567;-88
2021/03/19 06:57:13;;;;;;;5.50;3.40;;;4.50;94.60;;;;;;1762196;81;21587;-87
2021/03/19 06:59:52;;;;;;;5.28;3.27;;;4.40;94.80;;;;;;1762275;81;21169;-77
2021/03/19 07:02:43;;;;;;;6.05;3.50;;;4.40;96.00;;;;;;1762045;81;21122;-79
2021/03/19 07:05:49;;;;;;;6.50;4.03;;;4.50;96.60;;;;;;1765852;80;21112;-72
2021/03/19 07:08:31;;;;;;;7.25;3.30;;;4.60;95.80;;;;;;1753021;81;21114;-75
2021/03/19 07:11:23;;;;;;;6.03;3.40;;;4.60;95.20;;;;;;1755180;79;21132;-74
2021/03/19 07:14:05;;;;;;;10.48;5.75;;;4.60;94.10;;;;;;1767939;79;21176;-73
2021/03/19 07:16:53;;;;;;;6.22;3.83;;;4.70;94.20;;;;;;1770563;79;21173;-75
2021/03/19 07:19:47;;;;;;;5.90;3.83;;;4.70;93.60;;;;;;1767363;80;21172;-73
2021/03/19 07:22:43;;;;;;;7.60;4.10;;;4.90;93.40;;;;;;1766727;80;21140;-72
2021/03/19 07:25:35;;;;;;;6.92;4.37;;;4.90;92.90;;;;;;1765800;80;21113;-75
2021/03/19 07:28:33;;;;;;;6.42;4.05;;;4.90;93.80;;;;;;1765540;80;21615;-75
2021/03/19 07:31:30;;;;;;;6.28;3.40;;;4.90;94.00;;;;;;1729866;80;21130;-74
2021/03/19 07:34:38;;;;;;;7.28;3.30;;;5.00;92.90;;;;;;1764603;80;21164;-74
2021/03/19 07:37:42;;;;;;;5.30;3.58;;;5.00;93.40;;;;;;1766275;80;21144;-75
2021/03/19 07:40:36;;;;;;;7.37;3.90;;;5.00;93.50;;;;;;1773795;80;21566;-71
2021/03/19 07:43:16;;;;;;;8.95;5.20;;;5.00;92.60;;;;;;1766833;80;21136;-73
2021/03/19 07:46:22;;;;;;;7.10;4.60;;;5.00;93.40;;;;;;1711295;80;21616;-73
2021/03/19 07:49:17;;;;;;;6.75;3.95;;;5.00;94.10;;;;;;1778420;80;21130;-75
2021/03/19 07:51:56;;;;;;;6.70;4.00;;;5.00;93.30;;;;;;1750652;80;21675;-74
2021/03/19 07:54:48;;;;;;;6.80;3.85;;;5.00;92.50;;;;;;1761513;80;21162;-73
2021/03/19 07:57:30;;;;;;;6.87;4.40;;;5.00;93.60;;;;;;1773775;80;21103;-74
2021/03/19 08:00:03;;;;;;;5.80;3.92;;;5.00;94.10;;;;;;1771804;80;21169;-73
2021/03/19 08:02:46;;;;;;;8.30;4.72;;;5.00;93.30;;;;;;1760141;80;21168;-74
2021/03/19 08:05:22;;;;;;;7.05;4.45;;;4.90;95.00;;;;;;1764851;80;21148;-74
2021/03/19 08:08:12;;;;;;;7.67;4.72;;;5.00;95.20;;;;;;1736478;80;21125;-73
2021/03/19 08:11:16;;;;;;;8.43;4.50;;;5.10;94.90;;;;;;1767995;80;21141;-75
2021/03/19 08:14:15;;;;;;;7.87;4.78;;;5.20;93.40;;;;;;1761180;81;21122;-73
2021/03/19 08:17:28;;;;;;;7.67;4.25;;;5.40;93.30;;;;;;1761528;81;21267;-73
2021/03/19 08:20:31;;;;;;;6.80;4.90;;;5.30;93.60;;;;;;1778380;80;21201;-77
2021/03/19 08:23:21;;;;;;;7.08;4.40;;;5.30;92.30;;;;;;1761405;81;21683;-80
2021/03/19 08:25:52;;;;;;;6.40;3.80;;;5.40;92.60;;;;;;1761698;81;21166;-81
2021/03/19 08:28:31;;;;;;;8.68;5.33;;;5.40;92.50;;;;;;1766829;80;21134;-77
2021/03/19 08:31:41;;;;;;;8.70;4.17;;;5.50;92.80;;;;;;1774275;80;21165;-75
2021/03/19 08:34:46;;;;;;;6.60;3.85;;;5.40;91.40;;;;;;1724268;82;21165;-77
2021/03/19 08:37:43;;;;;;;6.92;3.95;;;5.50;92.80;;;;;;1790895;80;21118;-80
2021/03/19 08:40:33;;;;;;;7.15;4.40;;;5.60;92.10;;;;;;1728895;80;21101;-77
2021/03/19 08:43:05;;;;;;;7.05;4.58;;;5.70;91.30;;;;;;1784094;80;21156;-78
2021/03/19 08:45:34;;;;;;;8.15;4.75;;;5.80;90.60;;;;;;1792559;80;21168;-78
2021/03/19 08:48:08;;;;;;;8.20;4.60;;;5.70;90.90;;;;;;1792791;80;21145;-78
2021/03/19 08:50:41;;;;;;;7.35;4.80;;;5.70;90.90;;;;;;1778831;80;21583;-77
2021/03/19 08:53:24;;;;;;;6.87;4.40;;;5.70;93.00;;;;;;1767730;80;21204;-74
2021/03/19 08:56:12;;;;;;;7.35;3.90;;;5.80;91.50;;;;;;1761823;80;21172;-81
2021/03/19 08:58:53;;;;;;;6.45;3.92;;;5.90;91.30;;;;;;1774169;80;21161;-78
2021/03/19 09:01:54;;;;;;;5.83;3.85;;;5.90;91.80;;;;;;1770063;80;21595;-77
2021/03/19 09:04:54;;;;;;;7.45;4.78;;;5.80;92.50;;;;;;1768721;80;21141;-78
2021/03/19 09:07:42;;;;;;;6.75;4.28;;;5.80;92.20;;;;;;1777826;80;21144;-77
2021/03/19 09:10:21;;;;;;;6.35;3.37;;;5.80;91.90;;;;;;1769140;80;21168;-77
2021/03/19 09:13:07;;;;;;;7.87;4.22;;;5.80;90.90;;;;;;1759699;81;21138;-80
2021/03/19 09:15:40;;;;;;;5.55;2.95;;;5.90;90.90;;;;;;1765404;80;21122;-79
2021/03/19 09:18:46;;;;;;;5.05;2.98;;;5.80;90.90;;;;;;1772683;80;21152;-79
2021/03/19 09:21:38;;;;;;;5.10;3.40;;;5.90;90.80;;;;;;1787155;80;21154;-80
2021/03/19 09:24:24;;;;;;;5.62;3.30;;;5.90;91.40;;;;;;1768594;80;21128;-81
2021/03/19 09:26:59;;;;;;;5.40;3.55;;;5.90;91.00;;;;;;1768129;80;21124;-80
2021/03/19 09:29:32;;;;;;;5.87;3.80;;;5.80;90.90;;;;;;1764922;80;21583;-79
2021/03/19 09:32:32;;;;;;;5.85;3.22;;;5.70;91.10;;;;;;1762162;80;21153;-78
2021/03/19 09:35:06;;;;;;;4.87;3.17;;;5.60;93.00;;;;;;1768435;80;21157;-80
2021/03/19 09:37:42;;;;;;;6.05;3.52;;;5.60;91.50;;;;;;1756273;81;21133;-79
2021/03/19 09:40:43;;;;;;;4.95;3.10;;;5.60;90.50;;;;;;1763361;80;21123;-78
2021/03/19 09:43:36;;;;;;;4.92;2.87;;;5.70;90.60;;;;;;1760383;80;21556;-77
2021/03/19 09:46:21;;;;;;;4.92;2.90;;;5.70;91.10;;;;;;1761785;80;21144;-80
2021/03/19 09:49:01;;;;;;;5.45;3.60;;;5.70;91.10;;;;;;1763892;80;21095;-79
2021/03/19 09:51:38;;;;;;;4.08;2.77;;;5.70;91.20;;;;;;1760254;80;21133;-79
2021/03/19 09:54:32;;;;;;;4.95;3.00;;;5.80;91.40;;;;;;1764525;80;21132;-77
2021/03/19 09:57:16;;;;;;;5.45;2.90;;;6.00;90.40;;;;;;1773449;80;21152;-80
2021/03/19 09:59:45;;;;;;;5.75;3.33;;;6.10;91.80;;;;;;1764598;80;21152;-79
2021/03/19 10:02:34;;;;;;;7.20;3.80;;;6.10;90.90;;;;;;1756485;80;21129;-81
2021/03/19 10:05:20;;;;;;;6.45;3.27;;;6.00;90.70;;;;;;1757761;80;21567;-79
2021/03/19 10:07:55;;;;;;;8.90;4.03;;;6.00;91.10;;;;;;1756341;81;21141;-80
2021/03/19 10:10:36;;;;;;;4.55;2.70;;;5.80;91.80;;;;;;1756000;82;21153;-81
2021/03/19 10:13:18;;;;;;;5.92;3.40;;;5.70;90.70;;;;;;1765531;80;21098;-82
2021/03/19 10:15:50;;;;;;;4.92;3.33;;;5.60;91.80;;;;;;1760285;80;21547;-83
2021/03/19 10:18:30;;;;;;;5.65;3.02;;;5.60;91.80;;;;;;1764116;80;21106;-81
2021/03/19 10:21:09;;;;;;;6.95;3.37;;;5.60;92.90;;;;;;1752498;81;21291;-80
2021/03/19 10:23:44;;;;;;;8.10;3.40;;;5.60;92.10;;;;;;1752427;81;21137;-79
2021/03/19 10:26:40;;;;;;;6.10;3.17;;;5.50;92.60;;;;;;1751647;81;21142;-78
2021/03/19 10:29:21;;;;;;;4.92;2.87;;;5.50;92.00;;;;;;1760749;80;21125;-78
2021/03/19 10:31:57;;;;;;;4.70;2.83;;;5.30;92.30;;;;;;1756776;81;21722;-79
2021/03/19 10:34:31;;;;;;;5.55;3.08;;;5.40;92.80;;;;;;1755999;80;21130;-77
2021/03/19 10:37:27;;;;;;;4.65;2.85;;;5.30;93.70;;;;;;1688828;84;21189;-77
2021/03/19 10:40:09;;;;;;;7.15;2.85;;;5.50;93.40;;;;;;1752228;81;21141;-78
2021/03/19 10:42:42;;;;;;;4.30;2.50;;;5.40;94.00;;;;;;1752385;81;21145;-85
2021/03/19 10:45:52;;;;;;;5.60;2.55;;;5.40;91.90;;;;;;1749346;81;21137;-79
2021/03/19 10:48:39;;;;;;;4.12;2.47;;;5.30;91.80;;;;;;1754845;81;21181;-76
2021/03/19 10:51:33;;;;;;;6.05;3.15;;;5.30;93.00;;;;;;1714661;80;21564;-76
2021/03/19 10:54:16;;;;;;;5.12;3.35;;;5.20;92.80;;;;;;1756804;81;21659;-80
2021/03/19 10:56:54;;;;;;;4.58;2.87;;;5.20;92.70;;;;;;1755660;81;21169;-80
2021/03/19 10:59:36;;;;;;;4.85;3.30;;;5.30;93.70;;;;;;1755977;81;21190;-78
2021/03/19 11:02:15;;;;;;;8.05;3.52;;;5.10;93.70;;;;;;1752611;81;21541;-77
2021/03/19 11:04:58;;;;;;;5.97;3.52;;;5.20;94.20;;;;;;1769669;81;21162;-73
2021/03/19 11:07:32;;;;;;;5.10;3.10;;;5.20;93.10;;;;;;1767935;80;21299;-75
2021/03/19 11:10:08;;;;;;;6.12;3.50;;;5.30;93.00;;;;;;1759418;81;21121;-79
2021/03/19 11:12:46;;;;;;;4.92;3.52;;;5.40;92.50;;;;;;1750519;81;21711;-75
2021/03/19 11:15:32;;;;;;;4.78;3.12;;;5.40;93.70;;;;;;1748229;82;21125;-74
2021/03/19 11:18:39;;;;;;;5.00;2.85;;;5.40;92.90;;;;;;1760595;81;21145;-73
2021/03/19 11:21:12;;;;;;;5.30;3.50;;;5.40;92.70;;;;;;1778203;80;21275;-77
2021/03/19 11:23:45;;;;;;;4.87;3.30;;;5.40;92.30;;;;;;1779238;81;21609;-79
2021/03/19 11:26:29;;;;;;;7.05;4.08;;;5.50;93.30;;;;;;1767832;80;21292;-75
2021/03/19 11:29:18;;;;;;;7.17;4.25;;;5.40;93.10;;;;;;1742106;82;21161;-81
2021/03/19 11:32:15;;;;;;;7.22;4.62;;;5.50;93.30;;;;;;1748474;81;21241;-76
2021/03/19 11:34:56;;;;;;;8.68;5.03;;;5.60;91.00;;;;;;1752598;81;21260;-77
2021/03/19 11:37:29;;;;;;;8.70;5.70;;;5.50;92.70;;;;;;1748443;81;21123;-78
2021/03/19 11:40:03;;;;;;;8.18;5.53;;;5.50;91.30;;;;;;1752701;81;21117;-78
2021/03/19 11:42:36;;;;;;;9.65;5.70;;;5.50;91.90;;;;;;1756897;81;21133;-79
2021/03/19 11:45:18;;;;;;;8.33;5.72;;;5.40;92.00;;;;;;1717375;82;21645;-80
2021/03/19 11:48:04;;;;;;;10.60;6.65;;;5.40;91.80;;;;;;1752516;81;21568;-80
2021/03/19 11:50:41;;;;;;;13.23;6.90;;;5.30;92.10;;;;;;1747205;82;21122;-81
2021/03/19 11:53:17;;;;;;;9.90;6.00;;;5.30;93.00;;;;;;1752581;81;21141;-82
2021/03/19 11:55:50;;;;;;;9.25;5.97;;;5.30;92.90;;;;;;1748207;81;21152;-82
2021/03/19 11:58:22;;;;;;;10.15;6.17;;;5.20;93.30;;;;;;1748246;82;21133;-79
2021/03/19 12:00:52;;;;;;;9.63;5.92;;;5.20;93.80;;;;;;1748591;81;21304;-77
2021/03/19 12:03:28;;;;;;;6.08;4.28;;;5.20;95.60;;;;;;1748479;81;21117;-78
2021/03/19 12:05:56;;;;;;;;;;;5.10;92.40;;;;;;1759301;81;21250;-83
2021/03/19 12:08:26;;;;;;;8.13;4.95;;;5.10;92.70;;;;;;1756757;81;20148;-84
2021/03/19 12:10:55;;;;;;;6.60;4.67;;;5.20;94.30;;;;;;1756637;81;21118;-84
2021/03/19 12:13:23;;;;;;;7.45;4.67;;;5.20;93.60;;;;;;1750393;81;21122;-80
2021/03/19 12:15:51;;;;;;;8.43;5.53;;;5.10;93.20;;;;;;1752187;81;21555;-81
2021/03/19 12:18:23;;;;;;;9.05;5.70;;;5.00;94.40;;;;;;1748298;81;21137;-74
2021/03/19 12:20:54;;;;;;;10.15;5.58;;;4.90;93.30;;;;;;1748073;81;21141;-79
2021/03/19 12:23:23;;;;;;;7.40;5.03;;;5.00;94.20;;;;;;1748330;82;21143;-78
2021/03/19 12:25:52;;;;;;;8.50;5.05;;;4.90;93.30;;;;;;1748329;82;21330;-79
2021/03/19 12:28:21;;;;;;;8.30;5.47;;;4.80;95.10;;;;;;1756681;81;21275;-81
2021/03/19 12:30:54;;;;;;;9.28;5.42;;;4.60;95.20;;;;;;1752617;81;21301;-73
2021/03/19 12:33:24;;;;;;;9.30;5.78;;;4.70;95.60;;;;;;1748318;81;21145;-77
2021/03/19 12:35:53;;;;;;;9.78;6.33;;;4.70;95.80;;;;;;1748493;82;21142;-82
2021/03/19 12:38:21;;;;;;;10.90;6.60;;;4.70;95.80;;;;;;1748296;81;21612;-84
2021/03/19 12:40:49;;;;;;;10.58;6.28;;;4.60;98.70;;;;;;1748897;81;22205;-78
2021/03/19 12:43:17;;;;;;;10.25;7.03;;;4.60;96.70;;;;;;1751110;80;21580;-78
2021/03/19 12:45:45;;;;;;;10.98;6.15;;;4.60;94.60;;;;;;1756732;81;21165;-74
2021/03/19 12:48:15;;;;;;;11.18;5.92;;;4.60;95.00;;;;;;1752077;81;21103;-74
2021/03/19 12:50:43;;;;;;;9.40;5.65;;;4.60;95.00;;;;;;1748349;81;21181;-80
2021/03/19 12:53:18;;;;;;;8.20;5.33;;;4.70;93.60;;;;;;1721038;82;21577;-79
2021/03/19 12:55:46;;;;;;;10.08;6.00;;;4.70;93.30;;;;;;1748789;81;21310;-81
2021/03/19 12:58:15;;;;;;;10.75;6.50;;;4.80;91.60;;;;;;1759891;81;21130;-83
2021/03/19 13:00:42;;;;;;;13.50;6.75;;;4.70;91.10;;;;;;1752740;80;21137;-84
2021/03/19 13:03:14;;;;;;;11.70;7.05;;;4.70;92.00;;;;;;1748091;81;21617;-84
2021/03/19 13:05:43;;;;;;;10.15;6.47;;;4.70;93.20;;;;;;1750103;81;21098;-78
2021/03/19 13:08:11;;;;;;;9.98;5.70;;;4.80;92.00;;;;;;1748245;82;21529;-85
2021/03/19 13:10:40;;;;;;;12.10;6.42;;;4.80;91.40;;;;;;1748152;82;21153;-79
2021/03/19 13:13:09;;;;;;;10.93;7.08;;;4.90;90.80;;;;;;1748185;82;21565;-83
2021/03/19 13:15:38;;;;;;;12.40;7.45;;;4.90;92.10;;;;;;1760964;81;21583;-81
2021/03/19 13:18:08;;;;;;;11.73;7.33;;;4.90;91.10;;;;;;1748246;81;21627;-81
2021/03/19 13:20:37;;;;;;;12.03;7.33;;;5.00;92.60;;;;;;1755708;81;21289;-76
2021/03/19 13:23:07;;;;;;;11.57;7.10;;;5.20;93.20;;;;;;1749371;80;21268;-80
2021/03/19 13:25:40;;;;;;;11.30;6.62;;;5.20;90.50;;;;;;1750926;81;21706;-76
2021/03/19 13:28:10;;;;;;;10.90;6.65;;;5.20;89.00;;;;;;1746941;81;21319;-89
2021/03/19 13:30:39;;;;;;;11.20;6.20;;;5.10;90.10;;;;;;1744237;81;21280;-80
2021/03/19 13:33:07;;;;;;;11.57;7.15;;;5.20;89.40;;;;;;1741952;82;21340;-76
2021/03/19 13:35:43;;;;;;;14.65;7.17;;;5.20;88.30;;;;;;1756058;81;21108;-74
2021/03/19 13:38:12;;;;;;;10.25;6.95;;;5.30;90.70;;;;;;1753187;81;21137;-75
2021/03/19 13:40:44;;;;;;;11.97;7.45;;;5.30;89.30;;;;;;1755834;80;21742;-73
2021/03/19 13:43:16;;;;;;;11.57;7.58;;;5.30;87.30;;;;;;1750609;80;21271;-74
2021/03/19 13:45:44;;;;;;;12.45;7.37;;;5.20;87.60;;;;;;1753254;81;21272;-74
2021/03/19 13:48:12;;;;;;;12.33;7.75;;;5.30;86.00;;;;;;1745746;81;21103;-74
2021/03/19 13:50:40;;;;;;;19.40;8.93;;;5.30;89.20;;;;;;1737353;81;21333;-76
2021/03/19 13:53:08;;;;;;;13.10;8.68;;;5.30;89.80;;;;;;1744537;81;21126;-77
2021/03/19 13:55:36;;;;;;;16.05;8.38;;;5.20;88.20;;;;;;1756194;81;21295;-76